createdAt,value
2019-03-31T00:00:32.937Z,42.33
2019-03-31T00:02:59.431Z,39.00
2019-03-31T00:05:25.719Z,39.47
2019-03-31T00:07:52.077Z,40.73
2019-03-31T00:10:18.353Z,41.00
2019-03-31T00:12:44.592Z,43.80
2019-03-31T00:15:10.869Z,44.63
2019-03-31T00:17:37.160Z,40.63
2019-03-31T00:20:04.441Z,40.60
2019-03-31T00:22:30.918Z,38.97
2019-03-31T00:24:57.182Z,42.83
2019-03-31T00:27:23.467Z,44.83
2019-03-31T00:29:49.715Z,40.43
2019-03-31T00:32:15.963Z,39.27
2019-03-31T00:34:42.248Z,38.97
2019-03-31T00:37:08.518Z,39.63
2019-03-31T00:39:34.768Z,40.37
2019-03-31T00:42:01.036Z,44.17
2019-03-31T00:44:27.542Z,41.13
2019-03-31T00:46:53.790Z,39.67
2019-03-31T00:49:20.079Z,42.43
2019-03-31T00:51:46.364Z,39.67
2019-03-31T00:54:12.597Z,40.93
2019-03-31T00:56:38.859Z,43.27
2019-03-31T00:59:05.113Z,44.30
2019-03-31T01:01:36.629Z,43.13
2019-03-31T01:04:01.699Z,38.80
2019-03-31T01:06:28.492Z,41.17
2019-03-31T01:08:54.735Z,43.30
2019-03-31T01:11:22.911Z,41.83
2019-03-31T01:13:49.180Z,46.97
2019-03-31T01:16:15.454Z,51.47
2019-03-31T01:18:41.924Z,49.57
2019-03-31T01:21:08.276Z,55.63
2019-03-31T01:23:35.651Z,51.17
2019-03-31T01:26:01.899Z,43.03
2019-03-31T01:28:28.143Z,41.20
2019-03-31T01:30:54.396Z,39.50
2019-03-31T01:33:20.652Z,36.87
2019-03-31T01:35:46.928Z,33.77
2019-03-31T01:38:13.175Z,33.97
2019-03-31T01:40:39.449Z,37.00
2019-03-31T01:43:06.252Z,32.77
2019-03-31T01:45:32.532Z,34.87
2019-03-31T01:47:58.796Z,32.00
2019-03-31T01:50:26.440Z,31.33
2019-03-31T01:52:52.688Z,34.60
2019-03-31T01:55:18.943Z,31.57
2019-03-31T01:57:45.212Z,33.80
2019-03-31T02:00:13.436Z,30.90
2019-03-31T02:02:40.007Z,34.53
2019-03-31T02:05:06.376Z,37.13
2019-03-31T02:07:32.670Z,36.40
2019-03-31T02:10:00.355Z,31.83
2019-03-31T02:12:26.608Z,33.60
2019-03-31T02:14:52.882Z,32.03
2019-03-31T02:17:19.333Z,33.53
2019-03-31T02:19:45.608Z,32.43
2019-03-31T02:22:11.881Z,29.60
2019-03-31T02:24:38.165Z,32.50
2019-03-31T02:27:04.493Z,33.47
2019-03-31T02:29:30.732Z,30.83
2019-03-31T02:31:56.991Z,33.33
2019-03-31T02:34:24.132Z,32.77
2019-03-31T02:36:50.394Z,33.77
2019-03-31T02:39:16.644Z,30.57
2019-03-31T02:41:42.893Z,32.40
2019-03-31T02:44:09.179Z,35.33
2019-03-31T02:46:35.460Z,36.17
2019-03-31T02:49:01.714Z,32.53
2019-03-31T02:51:28.199Z,32.60
2019-03-31T02:53:54.565Z,31.50
2019-03-31T02:56:20.937Z,32.57
2019-03-31T02:58:55.016Z,35.60
2019-03-31T03:01:21.248Z,36.73
2019-03-31T03:03:47.707Z,35.70
2019-03-31T03:06:13.955Z,33.80
2019-03-31T03:08:40.233Z,46.53
2019-03-31T03:11:06.509Z,36.87
2019-03-31T03:13:33.188Z,37.50
2019-03-31T03:16:07.675Z,37.17
2019-03-31T03:18:33.958Z,39.70
2019-03-31T03:21:00.733Z,39.60
2019-03-31T03:23:27.014Z,36.57
2019-03-31T03:25:56.107Z,39.07
2019-03-31T03:28:21.438Z,38.27
2019-03-31T03:30:47.903Z,43.07
2019-03-31T03:33:17.257Z,41.93
2019-03-31T03:35:42.429Z,41.20
2019-03-31T03:38:08.956Z,39.57
2019-03-31T03:40:35.232Z,38.97
2019-03-31T03:43:01.516Z,42.53
2019-03-31T03:45:27.799Z,42.87
2019-03-31T03:47:54.067Z,45.30
2019-03-31T03:50:20.358Z,44.70
2019-03-31T03:52:46.679Z,45.77
2019-03-31T03:55:13.550Z,51.50
2019-03-31T03:57:41.690Z,43.97
2019-03-31T04:00:09.169Z,41.83
2019-03-31T04:02:35.429Z,42.57
2019-03-31T04:05:02.418Z,38.53
2019-03-31T04:07:28.650Z,41.10
2019-03-31T04:09:54.937Z,46.57
2019-03-31T04:12:21.186Z,39.87
2019-03-31T04:14:47.458Z,36.53
2019-03-31T04:17:13.701Z,38.57
2019-03-31T04:19:40.008Z,52.70
2019-03-31T04:22:06.285Z,60.77
2019-03-31T04:24:33.653Z,60.33
2019-03-31T04:27:01.125Z,74.97
2019-03-31T04:29:27.396Z,72.67
2019-03-31T04:31:53.665Z,78.90
2019-03-31T04:34:19.929Z,78.77
2019-03-31T04:36:46.215Z,73.43
2019-03-31T04:39:12.484Z,73.87
2019-03-31T04:41:38.756Z,77.33
2019-03-31T04:44:05.000Z,83.77
2019-03-31T04:46:31.292Z,76.37
2019-03-31T04:48:57.529Z,78.03
2019-03-31T04:51:23.818Z,75.60
2019-03-31T04:53:50.056Z,76.90
2019-03-31T04:56:16.307Z,71.43
2019-03-31T04:58:42.551Z,77.03
2019-03-31T05:01:08.853Z,74.40
2019-03-31T05:03:35.119Z,74.67
2019-03-31T05:06:01.376Z,79.47
2019-03-31T05:08:27.639Z,77.60
2019-03-31T05:10:53.872Z,78.10
2019-03-31T05:13:20.153Z,75.80
2019-03-31T05:15:46.574Z,83.90
2019-03-31T05:18:12.810Z,86.03
2019-03-31T05:20:39.056Z,81.80
2019-03-31T05:23:05.333Z,89.87
2019-03-31T05:25:31.580Z,87.10
2019-03-31T05:27:57.861Z,86.20
2019-03-31T05:30:24.136Z,88.70
2019-03-31T05:32:50.391Z,93.30
2019-03-31T05:35:16.634Z,83.30
2019-03-31T05:37:50.854Z,87.30
2019-03-31T05:40:11.354Z,86.07
2019-03-31T05:42:37.886Z,79.23
2019-03-31T05:45:04.929Z,82.90
2019-03-31T05:47:31.221Z,83.67
2019-03-31T05:49:57.454Z,82.77
2019-03-31T05:52:23.733Z,70.80
2019-03-31T05:54:51.065Z,76.17
2019-03-31T05:57:17.339Z,74.30
2019-03-31T05:59:43.620Z,74.60
2019-03-31T06:02:10.039Z,75.60
2019-03-31T06:04:36.382Z,70.90
2019-03-31T06:07:02.613Z,74.97
2019-03-31T06:09:28.892Z,74.73
2019-03-31T06:11:55.278Z,68.77
2019-03-31T06:14:21.550Z,71.20
2019-03-31T06:16:48.295Z,73.00
2019-03-31T06:19:14.573Z,67.60
2019-03-31T06:21:40.876Z,67.67
2019-03-31T06:24:07.125Z,70.90
2019-03-31T06:26:33.400Z,63.23
2019-03-31T06:28:59.682Z,66.93
2019-03-31T06:31:25.961Z,68.40
2019-03-31T06:33:52.196Z,69.07
2019-03-31T06:36:18.494Z,62.80
2019-03-31T06:38:44.761Z,67.53
2019-03-31T06:41:11.036Z,69.63
2019-03-31T06:43:37.295Z,63.53
2019-03-31T06:46:03.572Z,64.23
2019-03-31T06:48:29.841Z,69.37
2019-03-31T06:50:56.077Z,58.90
2019-03-31T06:53:22.337Z,59.20
2019-03-31T06:55:48.720Z,37.97
2019-03-31T06:58:15.882Z,27.67
2019-03-31T07:00:42.174Z,27.63
2019-03-31T07:03:08.439Z,27.73
2019-03-31T07:05:34.744Z,27.73
2019-03-31T07:08:01.892Z,28.63
2019-03-31T07:10:28.183Z,29.77
2019-03-31T07:12:54.515Z,26.20
2019-03-31T07:15:20.772Z,31.67
2019-03-31T07:17:47.025Z,23.60
2019-03-31T07:20:13.534Z,26.73
2019-03-31T07:22:39.815Z,25.03
2019-03-31T07:25:08.148Z,42.17
2019-03-31T07:27:35.331Z,22.77
2019-03-31T07:30:07.176Z,27.90
2019-03-31T07:32:33.125Z,24.60
2019-03-31T07:34:59.765Z,24.87
2019-03-31T07:37:26.076Z,23.67
2019-03-31T07:39:52.377Z,29.00
2019-03-31T07:42:18.613Z,22.43
2019-03-31T07:44:44.867Z,25.97
2019-03-31T07:47:11.138Z,23.93
2019-03-31T07:49:37.444Z,26.40
2019-03-31T07:52:03.682Z,23.40
2019-03-31T07:54:29.971Z,22.93
2019-03-31T07:56:56.481Z,22.70
2019-03-31T07:59:23.959Z,19.20
2019-03-31T08:01:50.296Z,26.17
2019-03-31T08:04:16.770Z,23.43
2019-03-31T08:06:43.037Z,21.33
2019-03-31T08:09:09.315Z,17.63
2019-03-31T08:11:37.199Z,19.27
2019-03-31T08:14:03.465Z,23.47
2019-03-31T08:16:29.739Z,18.23
2019-03-31T08:18:56.025Z,21.07
2019-03-31T08:21:22.261Z,17.57
2019-03-31T08:23:48.541Z,20.80
2019-03-31T08:26:14.790Z,14.13
2019-03-31T08:28:41.363Z,13.07
2019-03-31T08:31:07.644Z,16.57
2019-03-31T08:33:33.887Z,15.03
2019-03-31T08:36:00.180Z,17.17
2019-03-31T08:38:26.447Z,21.10
2019-03-31T08:40:52.712Z,23.27
2019-03-31T08:43:18.952Z,19.67
2019-03-31T08:45:45.197Z,19.50
2019-03-31T08:48:11.487Z,15.93
2019-03-31T08:50:37.769Z,20.87
2019-03-31T08:53:04.172Z,16.43
2019-03-31T08:55:30.438Z,18.73
2019-03-31T08:57:57.865Z,15.90
2019-03-31T09:00:26.153Z,15.93
2019-03-31T09:02:52.433Z,23.47
2019-03-31T09:05:18.680Z,18.27
2019-03-31T09:07:44.960Z,19.97
2019-03-31T09:10:13.116Z,19.63
2019-03-31T09:12:39.392Z,17.00
2019-03-31T09:15:07.433Z,16.57
2019-03-31T09:17:33.711Z,18.50
2019-03-31T09:19:59.953Z,14.23
2019-03-31T09:22:26.199Z,17.30
2019-03-31T09:24:52.479Z,17.70
2019-03-31T09:27:18.723Z,18.07
2019-03-31T09:29:45.024Z,19.10
2019-03-31T09:32:11.294Z,20.10
2019-03-31T09:34:37.664Z,18.47
2019-03-31T09:37:03.923Z,16.07
2019-03-31T09:39:30.200Z,21.47
2019-03-31T09:41:56.480Z,20.10
2019-03-31T09:44:22.768Z,16.90
2019-03-31T09:46:49.022Z,14.43
2019-03-31T09:49:15.299Z,15.10
2019-03-31T09:51:41.580Z,13.30
2019-03-31T09:54:07.839Z,15.60
2019-03-31T09:56:34.232Z,15.33
2019-03-31T09:59:00.465Z,14.57
2019-03-31T10:01:26.823Z,14.63
2019-03-31T10:03:53.335Z,17.43
2019-03-31T10:06:30.037Z,15.10
2019-03-31T10:08:47.738Z,15.53
2019-03-31T10:11:14.003Z,18.23
2019-03-31T10:13:40.480Z,15.27
2019-03-31T10:16:06.730Z,14.60
2019-03-31T10:18:33.016Z,17.17
2019-03-31T10:20:59.349Z,14.90
2019-03-31T10:23:25.655Z,16.33
2019-03-31T10:25:51.893Z,14.87
2019-03-31T10:28:18.177Z,12.93
2019-03-31T10:30:44.424Z,16.83
2019-03-31T10:33:10.674Z,17.23
2019-03-31T10:35:36.957Z,13.77
2019-03-31T10:38:03.224Z,15.27
2019-03-31T10:40:29.578Z,16.97
2019-03-31T10:42:56.082Z,17.10
2019-03-31T10:45:22.331Z,12.67
2019-03-31T10:47:48.608Z,13.20
2019-03-31T10:50:15.011Z,10.03
2019-03-31T10:52:41.251Z,8.73
2019-03-31T10:55:07.526Z,7.03
2019-03-31T10:57:33.783Z,4.93
2019-03-31T11:00:00.174Z,6.70
2019-03-31T11:02:26.513Z,7.03
2019-03-31T11:04:52.763Z,8.57
2019-03-31T11:07:19.082Z,6.23
2019-03-31T11:09:45.351Z,7.47
2019-03-31T11:12:11.682Z,5.70
2019-03-31T11:14:37.940Z,7.30
2019-03-31T11:17:04.186Z,5.27
2019-03-31T11:19:30.474Z,7.23
2019-03-31T11:22:04.604Z,6.27
2019-03-31T11:24:30.855Z,6.93
2019-03-31T11:26:57.147Z,6.23
2019-03-31T11:29:23.413Z,6.23
2019-03-31T11:31:49.922Z,6.23
2019-03-31T11:34:16.184Z,5.43
2019-03-31T11:36:42.433Z,5.67
2019-03-31T11:39:09.832Z,4.90
2019-03-31T11:41:36.134Z,8.10
2019-03-31T11:44:02.393Z,6.90
2019-03-31T11:46:28.680Z,5.00
2019-03-31T11:48:54.954Z,6.80
2019-03-31T11:51:21.333Z,5.50
2019-03-31T11:53:48.709Z,7.93
2019-03-31T11:56:14.955Z,5.20
2019-03-31T11:58:41.287Z,5.30
2019-03-31T12:01:08.280Z,3.73
2019-03-31T12:03:34.544Z,6.20
2019-03-31T12:06:00.901Z,4.73
2019-03-31T12:08:27.180Z,5.27
2019-03-31T12:10:53.455Z,4.63
2019-03-31T12:13:19.731Z,4.57
2019-03-31T12:15:46.020Z,5.23
2019-03-31T12:18:12.281Z,4.30
2019-03-31T12:20:38.522Z,6.30
2019-03-31T12:23:04.806Z,4.97
2019-03-31T12:25:31.083Z,5.00
2019-03-31T12:27:57.385Z,3.67
2019-03-31T12:30:26.383Z,5.17
2019-03-31T12:32:52.669Z,4.23
2019-03-31T12:35:18.914Z,5.03
2019-03-31T12:37:45.188Z,4.63
2019-03-31T12:40:30.796Z,3.10
2019-03-31T12:42:57.131Z,5.80
2019-03-31T12:45:23.373Z,5.00
2019-03-31T12:47:49.888Z,6.00
2019-03-31T12:50:16.132Z,2.57
2019-03-31T12:52:46.991Z,6.23
2019-03-31T12:55:10.668Z,4.43
2019-03-31T12:57:36.990Z,6.53
2019-03-31T13:00:04.761Z,3.77
2019-03-31T13:02:31.068Z,9.53
2019-03-31T13:04:57.611Z,4.13
2019-03-31T13:07:23.879Z,5.10
2019-03-31T13:09:50.163Z,6.57
2019-03-31T13:12:16.408Z,8.90
2019-03-31T13:14:42.649Z,6.63
2019-03-31T13:17:08.909Z,3.43
2019-03-31T13:19:35.196Z,5.90
2019-03-31T13:22:01.490Z,5.53
2019-03-31T13:24:27.759Z,6.07
2019-03-31T13:26:54.049Z,6.23
2019-03-31T13:29:20.316Z,5.90
2019-03-31T13:31:46.594Z,4.60
2019-03-31T13:34:12.875Z,3.80
2019-03-31T13:36:39.147Z,5.20
2019-03-31T13:39:05.505Z,6.20
2019-03-31T13:41:31.740Z,4.07
2019-03-31T13:43:58.023Z,4.57
2019-03-31T13:46:24.264Z,3.23
2019-03-31T13:48:50.527Z,3.50
2019-03-31T13:51:16.769Z,3.40
2019-03-31T13:53:43.895Z,5.33
2019-03-31T13:56:10.432Z,5.53
2019-03-31T13:58:38.566Z,3.17
2019-03-31T14:01:05.185Z,4.93
2019-03-31T14:03:31.939Z,4.57
2019-03-31T14:05:58.209Z,4.10
2019-03-31T14:08:26.085Z,2.63
2019-03-31T14:10:52.535Z,2.43
2019-03-31T14:13:19.039Z,3.30
2019-03-31T14:15:45.337Z,5.47
2019-03-31T14:18:11.578Z,3.47
2019-03-31T14:20:37.854Z,4.37
2019-03-31T14:23:04.101Z,6.20
2019-03-31T14:25:30.382Z,4.07
2019-03-31T14:27:56.771Z,3.57
2019-03-31T14:30:23.035Z,2.60
2019-03-31T14:32:50.415Z,3.83
2019-03-31T14:35:16.958Z,3.80
2019-03-31T14:37:43.206Z,4.30
2019-03-31T14:40:09.481Z,4.90
2019-03-31T14:42:35.799Z,3.57
2019-03-31T14:45:03.375Z,4.80
2019-03-31T14:47:29.667Z,4.13
2019-03-31T14:49:55.902Z,3.70
2019-03-31T14:52:27.599Z,4.97
2019-03-31T14:54:50.655Z,7.87
2019-03-31T14:57:22.998Z,5.90
2019-03-31T14:59:49.273Z,4.33
2019-03-31T15:02:15.576Z,4.37
2019-03-31T15:04:41.858Z,4.10
2019-03-31T15:07:08.136Z,4.53
2019-03-31T15:09:34.413Z,5.40
2019-03-31T15:12:00.682Z,4.23
2019-03-31T15:14:26.960Z,4.93
2019-03-31T15:16:53.217Z,5.03
2019-03-31T15:19:19.471Z,3.70
2019-03-31T15:21:45.750Z,3.80
2019-03-31T15:24:13.087Z,6.60
2019-03-31T15:26:40.170Z,3.67
2019-03-31T15:29:06.458Z,5.73
2019-03-31T15:31:32.731Z,6.37
2019-03-31T15:33:59.003Z,4.10
2019-03-31T15:36:25.259Z,4.33
2019-03-31T15:38:51.498Z,5.00
2019-03-31T15:41:21.350Z,4.57
2019-03-31T15:43:45.905Z,3.50
2019-03-31T15:46:12.160Z,3.77
2019-03-31T15:48:38.481Z,5.63
2019-03-31T15:51:04.765Z,7.77
2019-03-31T15:53:31.003Z,2.83
2019-03-31T15:55:57.249Z,3.67
2019-03-31T15:58:23.617Z,3.93
2019-03-31T16:00:49.961Z,7.40
2019-03-31T16:03:16.203Z,3.23
2019-03-31T16:05:42.553Z,5.20
2019-03-31T16:08:11.940Z,4.77
2019-03-31T16:10:38.327Z,5.97
2019-03-31T16:13:04.569Z,7.37
2019-03-31T16:15:30.817Z,4.87
2019-03-31T16:17:58.189Z,2.60
2019-03-31T16:20:24.455Z,3.30
2019-03-31T16:22:50.740Z,4.23
2019-03-31T16:25:41.913Z,5.63
2019-03-31T16:28:08.153Z,7.37
2019-03-31T16:30:35.429Z,3.90
2019-03-31T16:33:01.753Z,4.97
2019-03-31T16:35:28.052Z,5.37
2019-03-31T16:37:54.324Z,3.57
2019-03-31T16:40:20.612Z,7.00
2019-03-31T16:42:46.849Z,3.13
2019-03-31T16:45:13.100Z,5.10
2019-03-31T16:47:39.466Z,3.57
2019-03-31T16:50:05.715Z,5.93
2019-03-31T16:52:32.021Z,6.80
2019-03-31T16:54:58.397Z,4.43
2019-03-31T16:57:24.941Z,5.53
2019-03-31T16:59:51.208Z,3.80
2019-03-31T17:02:18.012Z,4.00
2019-03-31T17:04:44.291Z,5.63
2019-03-31T17:07:10.546Z,5.00
2019-03-31T17:09:50.673Z,4.27
2019-03-31T17:12:06.138Z,4.80
2019-03-31T17:14:32.402Z,5.27
2019-03-31T17:16:58.795Z,5.27
2019-03-31T17:19:30.962Z,5.27
2019-03-31T17:21:59.745Z,4.67
2019-03-31T17:24:25.665Z,4.53
2019-03-31T17:26:51.938Z,5.77
2019-03-31T17:29:18.298Z,8.13
2019-03-31T17:31:44.581Z,5.87
2019-03-31T17:34:10.837Z,8.77
2019-03-31T17:36:37.088Z,6.60
2019-03-31T17:39:06.142Z,6.77
2019-03-31T17:41:32.419Z,4.20
2019-03-31T17:43:58.689Z,5.47
2019-03-31T17:46:24.927Z,6.17
2019-03-31T17:48:51.200Z,6.10
2019-03-31T17:51:17.472Z,7.50
2019-03-31T17:53:43.907Z,5.03
2019-03-31T17:56:10.255Z,9.47
2019-03-31T17:58:36.895Z,8.57
2019-03-31T18:01:03.230Z,5.27
2019-03-31T18:03:29.509Z,8.90
2019-03-31T18:05:55.809Z,7.97
2019-03-31T18:08:22.092Z,6.73
2019-03-31T18:10:48.408Z,8.97
2019-03-31T18:13:14.696Z,7.67
2019-03-31T18:15:41.083Z,9.37
2019-03-31T18:18:07.380Z,9.30
2019-03-31T18:20:33.670Z,10.23
2019-03-31T18:22:59.937Z,6.83
2019-03-31T18:25:26.266Z,9.07
2019-03-31T18:27:52.504Z,10.80
2019-03-31T18:30:18.782Z,11.10
2019-03-31T18:32:45.098Z,8.73
2019-03-31T18:35:11.938Z,12.17
2019-03-31T18:37:38.315Z,8.17
2019-03-31T18:40:07.812Z,10.87
2019-03-31T18:42:34.056Z,8.67
2019-03-31T18:45:07.911Z,11.77
2019-03-31T18:47:35.304Z,9.30
2019-03-31T18:50:04.624Z,9.97
2019-03-31T18:52:31.892Z,9.63
2019-03-31T18:55:04.568Z,5.47
2019-03-31T18:57:49.088Z,8.80
2019-03-31T19:00:33.859Z,8.07
2019-03-31T19:03:13.944Z,9.23
2019-03-31T19:05:42.104Z,11.73
2019-03-31T19:08:25.605Z,9.47
2019-03-31T19:10:53.778Z,5.47
2019-03-31T19:13:22.034Z,9.00
2019-03-31T19:15:50.318Z,6.30
2019-03-31T19:18:36.536Z,8.53
2019-03-31T19:21:21.910Z,11.23
2019-03-31T19:23:48.196Z,11.33
2019-03-31T19:26:22.029Z,9.97
2019-03-31T19:28:57.978Z,10.73
2019-03-31T19:31:29.142Z,10.47
2019-03-31T19:33:57.350Z,9.20
2019-03-31T19:36:31.574Z,8.90
2019-03-31T19:39:08.713Z,6.37
2019-03-31T19:41:53.201Z,10.23
2019-03-31T19:44:27.279Z,7.27
2019-03-31T19:46:59.137Z,9.60
2019-03-31T19:49:34.262Z,5.93
2019-03-31T19:52:06.608Z,9.33
2019-03-31T19:54:38.153Z,5.97
2019-03-31T19:57:12.281Z,7.33
2019-03-31T19:59:40.437Z,8.13
2019-03-31T20:02:14.803Z,7.13
2019-03-31T20:04:47.026Z,10.03
2019-03-31T20:07:32.134Z,8.40
2019-03-31T20:10:06.022Z,10.23
2019-03-31T20:12:51.080Z,8.97
2019-03-31T20:15:37.353Z,8.80
2019-03-31T20:18:14.439Z,10.87
2019-03-31T20:21:00.731Z,8.67
2019-03-31T20:23:35.058Z,5.47
2019-03-31T20:26:07.249Z,7.90
2019-03-31T20:28:35.434Z,8.83
2019-03-31T20:31:06.379Z,11.17
2019-03-31T20:33:35.539Z,16.40
2019-03-31T20:36:21.587Z,17.10
2019-03-31T20:39:07.997Z,15.47
2019-03-31T20:41:36.298Z,15.17
2019-03-31T20:44:02.706Z,8.80
2019-03-31T20:46:28.936Z,7.30
2019-03-31T20:48:55.214Z,7.97
2019-03-31T20:51:21.495Z,8.13
2019-03-31T20:53:48.031Z,7.13
2019-03-31T20:56:14.301Z,6.53
2019-03-31T20:58:40.548Z,6.87
2019-03-31T21:01:09.961Z,12.60
2019-03-31T21:03:38.103Z,8.73
2019-03-31T21:06:04.661Z,8.83
2019-03-31T21:08:30.940Z,9.43
2019-03-31T21:11:02.143Z,9.03
2019-03-31T21:13:28.405Z,8.87
2019-03-31T21:15:54.718Z,9.53
2019-03-31T21:18:21.286Z,11.00
2019-03-31T21:20:47.574Z,6.27
2019-03-31T21:23:13.889Z,4.90
2019-03-31T21:25:40.166Z,7.60
2019-03-31T21:28:06.447Z,4.30
2019-03-31T21:30:32.708Z,9.30
2019-03-31T21:33:00.130Z,6.57
2019-03-31T21:35:26.420Z,5.60
2019-03-31T21:37:53.158Z,5.77
2019-03-31T21:40:19.431Z,6.63
2019-03-31T21:42:45.808Z,6.13
2019-03-31T21:45:12.577Z,5.00
2019-03-31T21:47:39.281Z,8.73
2019-03-31T21:50:06.048Z,5.60
2019-03-31T21:52:33.131Z,6.33
2019-03-31T21:54:59.468Z,4.97
2019-03-31T21:57:25.842Z,5.30
2019-03-31T21:59:52.239Z,3.27
2019-03-31T22:02:20.069Z,6.27
2019-03-31T22:04:46.581Z,7.57
2019-03-31T22:07:12.819Z,4.90
2019-03-31T22:09:39.096Z,3.93
2019-03-31T22:12:06.099Z,7.23
2019-03-31T22:14:32.339Z,7.57
2019-03-31T22:16:59.719Z,8.43
2019-03-31T22:19:26.002Z,9.83
2019-03-31T22:21:52.282Z,8.33
2019-03-31T22:24:18.533Z,11.17
2019-03-31T22:26:44.926Z,5.57
2019-03-31T22:29:11.170Z,5.07
2019-03-31T22:31:37.422Z,7.50
2019-03-31T22:34:03.666Z,4.73
2019-03-31T22:36:30.456Z,9.87
2019-03-31T22:38:56.732Z,6.53
2019-03-31T22:41:22.985Z,6.87
2019-03-31T22:43:49.264Z,7.03
2019-03-31T22:46:16.918Z,8.50
2019-03-31T22:48:43.193Z,7.93
2019-03-31T22:51:09.470Z,5.23
2019-03-31T22:53:35.853Z,7.60
2019-03-31T22:56:02.231Z,8.20
2019-03-31T22:58:28.484Z,4.97
2019-03-31T23:00:54.769Z,6.30
2019-03-31T23:03:21.021Z,7.57
2019-03-31T23:05:47.305Z,8.83
2019-03-31T23:08:14.647Z,8.07
2019-03-31T23:10:40.895Z,10.67
2019-03-31T23:13:07.152Z,8.27
2019-03-31T23:15:33.429Z,9.40
2019-03-31T23:17:59.671Z,8.10
2019-03-31T23:20:25.916Z,6.83
2019-03-31T23:22:52.199Z,6.17
2019-03-31T23:25:18.445Z,8.57
2019-03-31T23:27:44.685Z,5.97
2019-03-31T23:30:11.340Z,5.60
2019-03-31T23:32:37.590Z,7.13
2019-03-31T23:35:05.345Z,11.67
2019-03-31T23:37:33.633Z,6.73
2019-03-31T23:40:00.405Z,11.60
2019-03-31T23:42:26.691Z,7.30
2019-03-31T23:44:53.037Z,9.00
2019-03-31T23:47:19.325Z,7.10
2019-03-31T23:49:45.598Z,6.07
2019-03-31T23:52:11.864Z,6.87
2019-03-31T23:54:38.140Z,7.07
2019-03-31T23:57:05.768Z,9.57
2019-03-31T23:59:32.260Z,11.70
